createdAt,value
2023-04-23T00:00:57.150Z,6.05
2023-04-23T00:05:57.376Z,7.95
2023-04-23T00:10:54.643Z,9.35
2023-04-23T00:15:52.705Z,9.75
2023-04-23T00:20:49.609Z,10.30
2023-04-23T00:25:46.596Z,10.73
2023-04-23T00:30:43.365Z,9.95
2023-04-23T00:35:40.911Z,9.85
2023-04-23T00:40:39.713Z,9.27
2023-04-23T00:45:36.596Z,11.43
2023-04-23T00:50:33.348Z,8.68
2023-04-23T00:55:30.866Z,9.23
2023-04-23T01:00:27.732Z,9.30
2023-04-23T01:05:27.965Z,7.53
2023-04-23T01:10:25.282Z,7.20
2023-04-23T01:15:22.915Z,7.63
2023-04-23T01:20:19.909Z,7.13
2023-04-23T01:25:17.474Z,8.00
2023-04-23T01:30:14.908Z,7.63
2023-04-23T01:35:12.594Z,7.57
2023-04-23T01:40:10.028Z,6.95
2023-04-23T01:45:09.329Z,7.82
2023-04-23T01:50:07.610Z,6.50
2023-04-23T01:55:05.127Z,8.30
2023-04-23T02:00:08.015Z,7.97
2023-04-23T02:05:12.058Z,8.18
2023-04-23T02:10:10.489Z,7.53
2023-04-23T02:15:09.963Z,6.90
2023-04-23T02:20:09.151Z,7.32
2023-04-23T02:25:08.093Z,8.25
2023-04-23T02:30:07.876Z,7.50
2023-04-23T02:35:05.999Z,6.70
2023-04-23T02:40:04.352Z,7.05
2023-04-23T02:45:02.700Z,6.25
2023-04-23T02:50:02.580Z,7.28
2023-04-23T02:54:59.665Z,6.45
2023-04-23T02:59:56.551Z,7.03
2023-04-23T03:05:04.538Z,6.28
2023-04-23T03:10:01.725Z,8.43
2023-04-23T03:14:59.271Z,7.82
2023-04-23T03:19:57.927Z,7.65
2023-04-23T03:24:55.652Z,7.55
2023-04-23T03:29:52.494Z,7.20
2023-04-23T03:34:49.413Z,8.50
2023-04-23T03:39:46.296Z,6.07
2023-04-23T03:44:45.601Z,9.25
2023-04-23T03:49:42.492Z,7.45
2023-04-23T03:54:39.540Z,7.30
2023-04-23T03:59:43.235Z,7.15
2023-04-23T04:04:42.796Z,7.35
2023-04-23T04:09:40.062Z,7.18
2023-04-23T04:14:36.824Z,5.90
2023-04-23T04:19:33.752Z,6.63
2023-04-23T04:24:31.870Z,5.45
2023-04-23T04:29:28.680Z,5.28
2023-04-23T04:34:25.751Z,5.70
2023-04-23T04:39:22.676Z,6.45
2023-04-23T04:44:20.656Z,5.22
2023-04-23T04:49:18.918Z,5.20
2023-04-23T04:54:15.609Z,5.13
2023-04-23T04:59:12.381Z,5.72
2023-04-23T05:04:10.411Z,5.43
2023-04-23T05:09:07.735Z,5.05
2023-04-23T05:14:04.570Z,5.53
2023-04-23T05:19:01.451Z,5.20
2023-04-23T05:23:59.036Z,8.18
2023-04-23T05:28:55.803Z,8.40
2023-04-23T05:33:53.364Z,11.07
2023-04-23T05:38:50.194Z,9.77
2023-04-23T05:43:47.838Z,7.68
2023-04-23T05:48:44.790Z,6.30
2023-04-23T05:53:41.592Z,3.78
2023-04-23T05:58:38.424Z,6.13
2023-04-23T06:03:41.551Z,3.10
2023-04-23T06:08:42.163Z,4.00
2023-04-23T06:13:42.984Z,4.05
2023-04-23T06:18:41.337Z,3.75
2023-04-23T06:23:40.517Z,4.20
2023-04-23T06:28:39.483Z,3.38
2023-04-23T06:33:56.020Z,3.63
2023-04-23T06:39:02.592Z,3.92
2023-04-23T06:43:59.975Z,5.07
2023-04-23T06:49:06.835Z,3.97
2023-04-23T06:54:03.997Z,4.60
2023-04-23T06:59:00.898Z,3.20
2023-04-23T07:03:58.529Z,3.83
2023-04-23T07:08:56.151Z,3.88
2023-04-23T07:13:53.078Z,2.95
2023-04-23T07:18:50.239Z,2.70
2023-04-23T07:23:47.025Z,3.10
2023-04-23T07:28:46.770Z,4.22
2023-04-23T07:33:43.567Z,4.05
2023-04-23T07:38:40.357Z,3.00
2023-04-23T07:43:37.209Z,3.20
2023-04-23T07:48:34.669Z,3.25
2023-04-23T07:53:31.541Z,3.30
2023-04-23T07:58:28.305Z,3.80
2023-04-23T08:03:25.374Z,3.28
2023-04-23T08:08:23.099Z,3.38
2023-04-23T08:13:20.066Z,3.58
2023-04-23T08:18:16.936Z,2.92
2023-04-23T08:23:13.879Z,3.60
2023-04-23T08:28:11.463Z,3.50
2023-04-23T08:33:09.283Z,2.78
2023-04-23T08:38:07.575Z,3.30
2023-04-23T08:43:15.766Z,3.33
2023-04-23T08:48:14.202Z,3.40
2023-04-23T08:53:11.411Z,3.47
2023-04-23T08:58:09.907Z,3.40
2023-04-23T09:03:13.527Z,2.92
2023-04-23T09:08:10.962Z,3.22
2023-04-23T09:13:08.204Z,3.05
2023-04-23T09:18:10.697Z,2.97
2023-04-23T09:23:14.781Z,3.80
2023-04-23T09:28:17.026Z,3.67
2023-04-23T09:33:16.493Z,3.83
2023-04-23T09:38:18.119Z,3.85
2023-04-23T09:43:15.298Z,3.58
2023-04-23T09:48:12.428Z,3.50
2023-04-23T09:53:10.714Z,3.40
2023-04-23T09:58:14.829Z,3.30
2023-04-23T10:03:13.383Z,3.33
2023-04-23T10:08:13.272Z,3.30
2023-04-23T10:13:11.070Z,4.55
2023-04-23T10:18:08.613Z,3.22
2023-04-23T10:23:06.582Z,3.70
2023-04-23T10:28:04.497Z,3.90
2023-04-23T10:33:10.827Z,3.17
2023-04-23T10:38:13.804Z,4.00
2023-04-23T10:43:10.793Z,4.15
2023-04-23T10:48:09.080Z,4.90
2023-04-23T10:53:18.890Z,4.13
2023-04-23T10:58:15.772Z,4.00
2023-04-23T11:03:35.943Z,4.28
2023-04-23T11:08:35.675Z,4.15
2023-04-23T11:13:32.605Z,4.13
2023-04-23T11:18:29.409Z,3.47
2023-04-23T11:23:32.442Z,4.40
2023-04-23T11:28:32.318Z,5.07
2023-04-23T11:33:34.456Z,3.83
2023-04-23T11:38:35.364Z,3.97
2023-04-23T11:43:37.563Z,4.50
2023-04-23T11:48:35.563Z,3.17
2023-04-23T11:53:33.137Z,3.85
2023-04-23T11:58:30.554Z,4.00
2023-04-23T12:03:28.655Z,4.20
2023-04-23T12:08:25.567Z,3.30
2023-04-23T12:13:24.483Z,3.75
2023-04-23T12:18:26.729Z,2.85
2023-04-23T12:23:27.383Z,3.53
2023-04-23T12:28:25.504Z,3.50
2023-04-23T12:33:22.514Z,3.65
2023-04-23T12:38:24.018Z,2.97
2023-04-23T12:43:20.985Z,3.33
2023-04-23T12:48:18.838Z,3.58
2023-04-23T12:53:15.708Z,3.47
2023-04-23T12:58:18.525Z,2.90
2023-04-23T13:03:18.764Z,3.45
2023-04-23T13:08:15.986Z,3.28
2023-04-23T13:13:12.791Z,3.80
2023-04-23T13:18:09.534Z,3.03
2023-04-23T13:23:10.113Z,3.20
2023-04-23T13:28:07.644Z,3.47
2023-04-23T13:33:08.778Z,4.00
2023-04-23T13:38:13.653Z,3.50
2023-04-23T13:43:10.434Z,2.97
2023-04-23T13:48:08.329Z,2.90
2023-04-23T13:53:06.183Z,3.08
2023-04-23T13:58:07.569Z,3.33
2023-04-23T14:03:05.164Z,3.60
2023-04-23T14:08:06.550Z,3.50
2023-04-23T14:13:10.956Z,3.55
2023-04-23T14:18:09.168Z,3.53
2023-04-23T14:23:44.562Z,3.45
2023-04-23T14:33:44.421Z,3.35
2023-04-23T14:38:41.459Z,3.55
2023-04-23T14:43:39.600Z,3.50
2023-04-23T14:48:42.589Z,3.22
2023-04-23T14:53:40.932Z,2.75
2023-04-23T14:58:37.977Z,2.97
2023-04-23T15:03:35.234Z,3.65
2023-04-23T15:08:32.304Z,3.28
2023-04-23T15:13:39.079Z,3.05
2023-04-23T15:18:36.361Z,4.75
2023-04-23T15:23:33.664Z,3.10
2023-04-23T15:28:31.183Z,3.70
2023-04-23T15:33:29.386Z,3.38
2023-04-23T15:38:28.694Z,3.72
2023-04-23T15:43:28.703Z,4.60
2023-04-23T15:48:38.868Z,3.58
2023-04-23T15:53:39.248Z,3.72
2023-04-23T15:58:36.266Z,3.17
2023-04-23T16:03:34.623Z,3.55
2023-04-23T16:08:32.281Z,3.70
2023-04-23T16:13:29.182Z,3.90
2023-04-23T16:18:26.171Z,3.30
2023-04-23T16:23:24.037Z,3.60
2023-04-23T16:28:23.924Z,3.70
2023-04-23T16:33:23.239Z,4.38
2023-04-23T16:38:20.182Z,4.28
2023-04-23T16:43:17.709Z,4.00
2023-04-23T16:48:21.305Z,4.38
2023-04-23T16:53:18.455Z,6.50
2023-04-23T16:58:18.117Z,4.78
2023-04-23T17:03:16.368Z,4.47
2023-04-23T17:08:13.326Z,3.65
2023-04-23T17:13:10.154Z,5.38
2023-04-23T17:18:07.231Z,5.00
2023-04-23T17:23:07.733Z,4.28
2023-04-23T17:28:05.917Z,4.07
2023-04-23T17:33:02.967Z,4.55
2023-04-23T17:37:59.933Z,4.28
2023-04-23T17:42:57.612Z,4.22
2023-04-23T17:47:54.460Z,4.47
2023-04-23T17:52:51.424Z,5.40
2023-04-23T17:57:48.492Z,3.80
2023-04-23T18:02:46.632Z,4.18
2023-04-23T18:07:47.703Z,4.88
2023-04-23T18:12:44.842Z,4.50
2023-04-23T18:17:41.733Z,4.70
2023-04-23T18:22:41.671Z,5.20
2023-04-23T18:27:38.721Z,6.40
2023-04-23T18:32:40.857Z,4.38
2023-04-23T18:37:42.336Z,4.25
2023-04-23T18:42:39.266Z,5.30
2023-04-23T18:47:38.894Z,4.05
2023-04-23T18:52:35.694Z,4.35
2023-04-23T18:57:33.534Z,4.40
2023-04-23T19:02:35.686Z,4.32
2023-04-23T19:07:36.676Z,4.40
2023-04-23T19:12:34.437Z,3.95
2023-04-23T19:17:31.369Z,4.05
2023-04-23T19:22:28.323Z,4.35
2023-04-23T19:27:25.386Z,4.70
2023-04-23T19:32:23.152Z,4.38
2023-04-23T19:37:19.993Z,4.22
2023-04-23T19:42:17.217Z,3.67
2023-04-23T19:47:16.173Z,3.95
2023-04-23T19:52:16.954Z,4.00
2023-04-23T19:57:13.801Z,4.25
2023-04-23T20:02:12.728Z,4.32
2023-04-23T20:07:09.569Z,4.15
2023-04-23T20:12:13.285Z,4.13
2023-04-23T20:17:10.730Z,4.38
2023-04-23T20:22:17.046Z,4.22
2023-04-23T20:27:15.536Z,3.97
2023-04-23T20:32:12.595Z,3.70
2023-04-23T20:37:09.749Z,4.05
2023-04-23T20:42:07.625Z,4.78
2023-04-23T20:47:07.759Z,4.15
2023-04-23T20:52:04.699Z,4.60
2023-04-23T20:57:01.698Z,4.63
2023-04-23T21:01:58.608Z,4.68
2023-04-23T21:06:56.208Z,4.30
2023-04-23T21:11:53.828Z,4.43
2023-04-23T21:16:50.627Z,4.32
2023-04-23T21:21:49.796Z,4.18
2023-04-23T21:26:47.413Z,4.70
2023-04-23T21:31:46.845Z,3.95
2023-04-23T21:36:44.090Z,4.63
2023-04-23T21:41:41.068Z,3.60
2023-04-23T21:46:38.628Z,4.88
2023-04-23T21:51:36.276Z,4.38
2023-04-23T21:56:33.454Z,3.60
2023-04-23T22:01:30.689Z,4.13
2023-04-23T22:06:28.309Z,4.15
2023-04-23T22:11:25.450Z,4.22
2023-04-23T22:16:28.811Z,4.38
2023-04-23T22:21:26.120Z,4.35
2023-04-23T22:26:23.730Z,5.00
2023-04-23T22:31:20.708Z,4.50
2023-04-23T22:36:17.525Z,4.85
2023-04-23T22:41:14.231Z,3.83
2023-04-23T22:46:14.946Z,4.07
2023-04-23T22:51:11.859Z,5.10
2023-04-23T22:56:08.777Z,4.55
2023-04-23T23:01:06.227Z,3.90
2023-04-23T23:06:04.010Z,4.10
2023-04-23T23:11:00.882Z,4.03
2023-04-23T23:16:00.047Z,4.28
2023-04-23T23:20:57.008Z,3.70
2023-04-23T23:25:54.811Z,3.50
2023-04-23T23:30:53.038Z,3.78
2023-04-23T23:35:50.123Z,3.92
2023-04-23T23:40:46.878Z,4.10
2023-04-23T23:45:44.489Z,4.32
2023-04-23T23:50:41.309Z,4.22
2023-04-23T23:55:40.069Z,4.65
